PROFILE

 METAR AND TAF INFORMATION
ADDS - METARS form results

(2103 UTC 18 February 2019)
http://aviationweather.gov/metar/data/
 
HECA 182100Z VRB02KT 4000 HZ NSC 13/07 Q1022 NOSIG
HECA 182030Z 35004KT 4000 HZ NSC 13/07 Q1022 NOSIG
TAF HECA 181953Z 1820/1924 01009KT 6000 NSC TEMPO 1820 /1824 4000HZ TEMPO 1901/1906 VRB03KT 4000 BR NSC 

 AIRPORT MAP

 RUNWAY INFORMATION
Runway 05C Runway length 13120 ft Runway width 197 ft
Runway elevation 382 ft Runway displaced threshold 0 ft Runway heading 45
Runway 23C Runway length 13120 ft Runway width 197 ft
Runway elevation 0 ft Runway displaced threshold 0 ft Runway heading 225
Runway 05L Runway length 10830 ft Runway width 197 ft
Runway elevation 190 ft Runway displaced threshold 0 ft Runway heading 49
Runway 23R Runway length 10830 ft Runway width 197 ft
Runway elevation 199 ft Runway displaced threshold 0 ft Runway heading 229
Runway 05R Runway length 13124 ft Runway width 197 ft
Runway elevation 382 ft Runway displaced threshold 0 ft Runway heading 49
Runway 23L Runway length 13124 ft Runway width 197 ft
Runway elevation 375 ft Runway displaced threshold 0 ft Runway heading 229

 AIRPORT FREQUENCIES
Type APP Name APP Frequency 119.05 MHZ
Type ATIS Name ATIS Frequency 122.6 MHZ
Type GND Name GND Frequency 121.9 MHZ
Type MISC Name VOLMET Frequency 126.2 MHZ
Type PFLT Name PREFLIGHT Frequency 120.1 MHZ
Type rdo Name cairo radi Frequency 11.3 MHZ
Type TWR Name TWR Frequency 118.1 MHZ
Type Volmet Name Frequency 124.6 MHZ

 AIRPORT NEAR NAVIGATION AIDS
Type NDB Name Cairo Frequency 310 KHZ
Type VOR-DME Name Cairo Frequency 112500 KHZ
Type VOR-DME Name Cairo Frequency 115200 KHZ
Type NDB Name Cairo Frequency 317 KHZ